createdAt,value
2023-03-30T00:02:18.985Z,101230.88
2023-03-30T00:05:27.731Z,101227.82
2023-03-30T00:08:55.667Z,101232.89
2023-03-30T00:12:23.590Z,101228.42
2023-03-30T00:15:51.532Z,101224.86
2023-03-30T00:19:19.598Z,101225.48
2023-03-30T00:22:47.423Z,101231.09
2023-03-30T00:26:16.597Z,101231.92
2023-03-30T00:29:46.945Z,101223.81
2023-03-30T00:33:14.670Z,101223.27
2023-03-30T00:36:42.535Z,101210.48
2023-03-30T00:40:11.888Z,101207.45
2023-03-30T00:43:39.900Z,101201.95
2023-03-30T00:47:08.066Z,101202.44
2023-03-30T00:50:35.932Z,101197.89
2023-03-30T00:54:04.382Z,101197.79
2023-03-30T00:57:32.273Z,101199.70
2023-03-30T01:01:00.449Z,101190.35
2023-03-30T01:04:28.420Z,101194.25
2023-03-30T01:07:37.592Z,101189.50
2023-03-30T01:11:05.903Z,101191.58
2023-03-30T01:14:14.731Z,101193.17
2023-03-30T01:17:42.562Z,101185.48
2023-03-30T01:21:10.267Z,101180.80
2023-03-30T01:24:38.125Z,101179.31
2023-03-30T01:28:06.167Z,101179.61
2023-03-30T01:31:34.090Z,101180.31
2023-03-30T01:35:02.076Z,101170.83
2023-03-30T01:38:29.871Z,101169.89
2023-03-30T01:41:57.735Z,101165.05
2023-03-30T01:44:28.267Z,101164.04
2023-03-30T01:47:56.203Z,101162.35
2023-03-30T01:51:24.418Z,101163.09
2023-03-30T01:54:52.414Z,101153.98
2023-03-30T01:58:20.197Z,101147.30
2023-03-30T02:01:48.423Z,101155.80
2023-03-30T02:05:17.497Z,101154.11
2023-03-30T02:08:45.386Z,101148.58
2023-03-30T02:12:13.243Z,101151.36
2023-03-30T02:15:41.328Z,101157.38
2023-03-30T02:19:09.284Z,101157.96
2023-03-30T02:22:37.459Z,101158.58
2023-03-30T02:26:05.535Z,101158.05
2023-03-30T02:29:33.564Z,101155.10
2023-03-30T02:32:42.814Z,101150.92
2023-03-30T02:36:10.543Z,101146.58
2023-03-30T02:39:38.537Z,101152.27
2023-03-30T02:43:06.714Z,101149.55
2023-03-30T02:46:34.663Z,101152.60
2023-03-30T02:49:43.498Z,101155.40
2023-03-30T02:52:52.740Z,101158.85
2023-03-30T02:56:20.633Z,101158.85
2023-03-30T02:59:48.470Z,101156.98
2023-03-30T03:02:57.340Z,101156.17
2023-03-30T03:06:25.177Z,101150.75
2023-03-30T03:09:53.134Z,101149.51
2023-03-30T03:13:21.162Z,101154.98
2023-03-30T03:16:30.414Z,101149.01
2023-03-30T03:19:50.797Z,101156.30
2023-03-30T03:23:18.792Z,101156.06
2023-03-30T03:26:46.617Z,101158.80
2023-03-30T03:30:14.445Z,101152.05
2023-03-30T03:33:42.559Z,101159.59
2023-03-30T03:37:09.390Z,101151.95
2023-03-30T03:40:18.134Z,101146.82
2023-03-30T03:43:45.944Z,101144.50
2023-03-30T03:46:54.445Z,101143.75
2023-03-30T03:50:22.668Z,101145.36
2023-03-30T03:53:50.639Z,101152.61
2023-03-30T03:57:18.576Z,101151.54
2023-03-30T04:00:26.715Z,101155.20
2023-03-30T04:03:35.659Z,101154.80
2023-03-30T04:06:44.460Z,101153.77
2023-03-30T04:10:12.506Z,101160.72
2023-03-30T04:13:28.956Z,101157.50
2023-03-30T04:16:59.909Z,101155.64
2023-03-30T04:20:39.841Z,101155.95
2023-03-30T04:24:12.088Z,101156.38
2023-03-30T04:27:52.562Z,101160.27
2023-03-30T04:31:23.116Z,101160.31
2023-03-30T04:34:57.169Z,101161.75
2023-03-30T04:38:23.981Z,101165.93
2023-03-30T04:41:54.843Z,101165.98
2023-03-30T04:45:25.792Z,101166.86
2023-03-30T04:49:03.175Z,101167.91
2023-03-30T04:52:35.876Z,101157.60
2023-03-30T04:55:47.219Z,101155.86
2023-03-30T04:58:55.463Z,101156.48
2023-03-30T05:02:26.148Z,101147.13
2023-03-30T05:06:12.970Z,101154.05
2023-03-30T05:09:20.649Z,101160.42
2023-03-30T05:12:47.294Z,101162.55
2023-03-30T05:16:21.347Z,101160.35
2023-03-30T05:19:55.395Z,101156.80
2023-03-30T05:23:23.593Z,101160.10
2023-03-30T05:26:57.677Z,101161.27
2023-03-30T05:30:31.338Z,101156.44
2023-03-30T05:33:58.320Z,101163.80
2023-03-30T05:37:31.864Z,101160.02
2023-03-30T05:41:11.732Z,101161.83
2023-03-30T05:44:45.956Z,101158.91
2023-03-30T05:48:12.933Z,101152.69
2023-03-30T05:51:41.103Z,101158.41
2023-03-30T05:55:12.001Z,101153.71
2023-03-30T05:58:47.377Z,101147.02
2023-03-30T06:02:18.498Z,101142.65
2023-03-30T06:05:46.463Z,101141.41
2023-03-30T06:08:55.223Z,101135.45
2023-03-30T06:12:23.172Z,101136.11
2023-03-30T06:15:51.265Z,101142.45
2023-03-30T06:19:19.111Z,101135.13
2023-03-30T06:22:48.303Z,101127.32
2023-03-30T06:26:16.386Z,101134.55
2023-03-30T06:29:25.000Z,101134.62
2023-03-30T06:32:52.991Z,101143.41
2023-03-30T06:36:44.191Z,101143.92
2023-03-30T06:39:55.500Z,101139.66
2023-03-30T06:43:23.285Z,101144.26
2023-03-30T06:46:51.084Z,101150.67
2023-03-30T06:49:59.934Z,101149.06
2023-03-30T06:53:13.656Z,101155.19
2023-03-30T06:56:43.358Z,101149.98
2023-03-30T07:00:11.276Z,101153.48
2023-03-30T07:03:38.922Z,101147.94
2023-03-30T07:07:07.195Z,101149.11
2023-03-30T07:10:35.088Z,101148.83
2023-03-30T07:14:03.214Z,101144.33
2023-03-30T07:17:31.444Z,101144.63
2023-03-30T07:20:40.510Z,101141.00
2023-03-30T07:24:08.676Z,101138.17
2023-03-30T07:27:36.740Z,101137.52
2023-03-30T07:30:46.673Z,101141.13
2023-03-30T07:34:14.335Z,101138.01
2023-03-30T07:37:22.772Z,101133.13
2023-03-30T07:40:51.973Z,101130.31
2023-03-30T07:44:19.799Z,101127.34
2023-03-30T07:47:47.922Z,101120.54
2023-03-30T07:51:16.034Z,101115.94
2023-03-30T07:54:49.962Z,101109.58
2023-03-30T07:58:20.753Z,101114.61
2023-03-30T08:01:29.302Z,101120.04
2023-03-30T08:05:09.889Z,101116.16
2023-03-30T08:08:49.629Z,101123.89
2023-03-30T08:12:17.669Z,101120.33
2023-03-30T08:15:46.460Z,101118.10
2023-03-30T08:19:15.865Z,101106.09
2023-03-30T08:22:43.698Z,101104.57
2023-03-30T08:26:13.928Z,101096.79
2023-03-30T08:29:41.662Z,101092.91
2023-03-30T08:33:09.671Z,101085.09
2023-03-30T08:36:37.425Z,101086.48
2023-03-30T08:40:05.650Z,101083.02
2023-03-30T08:43:33.586Z,101083.56
2023-03-30T08:47:01.483Z,101078.79
2023-03-30T08:50:29.569Z,101069.59
2023-03-30T08:53:38.520Z,101058.33
2023-03-30T08:57:07.029Z,101056.40
2023-03-30T09:00:35.187Z,101062.46
2023-03-30T09:04:03.330Z,101059.34
2023-03-30T09:07:31.208Z,101062.33
2023-03-30T09:10:59.220Z,101061.84
2023-03-30T09:14:27.301Z,101070.30
2023-03-30T09:17:55.500Z,101067.59
2023-03-30T09:21:23.427Z,101062.27
2023-03-30T09:24:51.727Z,101050.86
2023-03-30T09:28:20.336Z,101044.63
2023-03-30T09:31:48.313Z,101040.60
2023-03-30T09:35:16.112Z,101029.79
2023-03-30T09:38:44.090Z,101022.09
2023-03-30T09:42:12.131Z,101017.13
2023-03-30T09:45:40.054Z,101013.29
2023-03-30T09:48:09.725Z,101009.64
2023-03-30T09:51:37.563Z,101005.96
2023-03-30T09:55:05.927Z,101003.68
2023-03-30T09:58:33.960Z,100999.02
2023-03-30T10:02:02.301Z,100992.64
2023-03-30T10:05:30.116Z,100980.02
2023-03-30T10:08:58.181Z,100976.61
2023-03-30T10:12:25.974Z,100969.45
2023-03-30T10:15:54.226Z,100957.58
2023-03-30T10:19:22.545Z,100952.91
2023-03-30T10:22:50.553Z,100955.35
2023-03-30T10:26:18.606Z,100953.52
2023-03-30T10:29:46.964Z,100949.48
2023-03-30T10:33:14.766Z,100939.11
2023-03-30T10:36:42.882Z,100939.79
2023-03-30T10:40:10.879Z,100941.70
2023-03-30T10:43:38.748Z,100949.27
2023-03-30T10:47:06.729Z,100941.30
2023-03-30T10:50:34.844Z,100939.07
2023-03-30T10:54:02.809Z,100932.20
2023-03-30T10:57:31.004Z,100925.77
2023-03-30T11:00:58.665Z,100919.36
2023-03-30T11:04:20.512Z,100912.88
2023-03-30T11:07:35.320Z,100912.67
2023-03-30T11:11:03.586Z,100914.00
2023-03-30T11:14:31.537Z,100908.38
2023-03-30T11:17:59.534Z,100902.27
2023-03-30T11:21:28.308Z,100894.54
2023-03-30T11:24:56.449Z,100893.36
2023-03-30T11:28:24.501Z,100891.39
2023-03-30T11:31:53.055Z,100885.54
2023-03-30T11:35:21.038Z,100877.14
2023-03-30T11:38:50.412Z,100869.45
2023-03-30T11:42:18.598Z,100861.33
2023-03-30T11:45:46.982Z,100857.83
2023-03-30T11:49:15.777Z,100854.95
2023-03-30T11:52:43.973Z,100851.05
2023-03-30T11:56:11.917Z,100851.33
2023-03-30T11:59:39.934Z,100841.30
2023-03-30T12:03:08.523Z,100848.11
2023-03-30T12:06:36.714Z,100846.98
2023-03-30T12:10:07.637Z,100844.45
2023-03-30T12:13:41.273Z,100844.73
2023-03-30T12:17:00.618Z,100846.73
2023-03-30T12:20:29.329Z,100842.35
2023-03-30T12:23:58.725Z,100833.09
2023-03-30T12:27:28.643Z,100821.40
2023-03-30T12:30:56.655Z,100807.83
2023-03-30T12:34:05.453Z,100792.66
2023-03-30T12:37:33.301Z,100787.68
2023-03-30T12:41:01.201Z,100781.41
2023-03-30T12:44:29.103Z,100779.77
2023-03-30T12:47:57.365Z,100773.00
2023-03-30T12:51:13.394Z,100766.33
2023-03-30T12:54:22.122Z,100765.42
2023-03-30T12:57:49.921Z,100759.44
2023-03-30T13:00:59.001Z,100750.05
2023-03-30T13:03:55.485Z,100740.86
2023-03-30T13:07:07.186Z,100742.20
2023-03-30T13:10:35.019Z,100735.61
2023-03-30T13:13:43.981Z,100726.41
2023-03-30T13:17:11.801Z,100715.10
2023-03-30T13:20:29.669Z,100708.92
2023-03-30T13:23:15.623Z,100703.06
2023-03-30T13:26:04.544Z,100700.25
2023-03-30T13:29:32.247Z,100689.96
2023-03-30T13:32:49.150Z,100689.94
2023-03-30T13:35:42.399Z,100694.00
2023-03-30T13:38:33.614Z,100687.91
2023-03-30T13:41:50.898Z,100681.34
2023-03-30T13:45:18.785Z,100677.17
2023-03-30T13:48:46.681Z,100668.42
2023-03-30T13:52:14.819Z,100659.36
2023-03-30T13:55:42.891Z,100653.46
2023-03-30T13:59:10.626Z,100655.05
2023-03-30T14:02:47.802Z,100657.09
2023-03-30T14:06:15.719Z,100648.66
2023-03-30T14:09:24.990Z,100642.23
2023-03-30T14:12:33.728Z,100634.67
2023-03-30T14:16:02.927Z,100631.14
2023-03-30T14:19:13.155Z,100616.47
2023-03-30T14:22:43.806Z,100601.38
2023-03-30T14:26:13.641Z,100597.28
2023-03-30T14:29:41.949Z,100594.67
2023-03-30T14:33:09.952Z,100593.14
2023-03-30T14:35:58.721Z,100594.34
2023-03-30T14:39:26.769Z,100595.60
2023-03-30T14:42:54.608Z,100595.55
2023-03-30T14:46:23.624Z,100589.25
2023-03-30T14:49:51.635Z,100589.52
2023-03-30T14:53:22.131Z,100589.25
2023-03-30T14:56:50.167Z,100584.91
2023-03-30T15:00:18.437Z,100580.27
2023-03-30T15:03:33.381Z,100576.80
2023-03-30T15:07:02.251Z,100573.04
2023-03-30T15:10:11.627Z,100567.89
2023-03-30T15:13:39.944Z,100562.01
2023-03-30T15:17:07.869Z,100559.93
2023-03-30T15:20:35.637Z,100561.89
2023-03-30T15:23:45.921Z,100554.78
2023-03-30T15:27:13.845Z,100539.36
2023-03-30T15:30:41.653Z,100537.88
2023-03-30T15:34:09.853Z,100536.65
2023-03-30T15:37:37.694Z,100532.52
2023-03-30T15:40:46.273Z,100524.22
2023-03-30T15:44:14.709Z,100513.75
2023-03-30T15:47:42.639Z,100515.36
2023-03-30T15:51:10.467Z,100508.25
2023-03-30T15:54:38.566Z,100506.27
2023-03-30T15:58:06.898Z,100500.21
2023-03-30T16:01:34.943Z,100496.27
2023-03-30T16:05:03.031Z,100491.48
2023-03-30T16:08:31.021Z,100482.86
2023-03-30T16:11:59.071Z,100480.79
2023-03-30T16:15:27.012Z,100476.05
2023-03-30T16:18:55.055Z,100476.24
2023-03-30T16:22:06.272Z,100478.05
2023-03-30T16:25:44.806Z,100476.08
2023-03-30T16:28:43.123Z,100480.05
2023-03-30T16:31:51.617Z,100483.73
2023-03-30T16:35:04.946Z,100483.94
2023-03-30T16:38:36.653Z,100480.39
2023-03-30T16:42:06.830Z,100468.67
2023-03-30T16:44:58.552Z,100469.34
2023-03-30T16:48:27.909Z,100471.04
2023-03-30T16:51:57.865Z,100474.89
2023-03-30T16:55:23.313Z,100470.66
2023-03-30T16:58:32.256Z,100478.87
2023-03-30T17:02:00.736Z,100476.40
2023-03-30T17:05:28.765Z,100471.11
2023-03-30T17:08:56.340Z,100464.43
2023-03-30T17:12:24.365Z,100457.00
2023-03-30T17:15:52.814Z,100459.16
2023-03-30T17:19:21.859Z,100456.98
2023-03-30T17:22:52.187Z,100458.03
2023-03-30T17:26:25.915Z,100459.22
2023-03-30T17:29:53.630Z,100461.13
2023-03-30T17:33:21.619Z,100458.05
2023-03-30T17:36:51.756Z,100460.81
2023-03-30T17:40:19.497Z,100454.83
2023-03-30T17:43:50.102Z,100449.12
2023-03-30T17:50:42.126Z,100445.93
2023-03-30T17:54:10.132Z,100443.98
2023-03-30T17:57:18.323Z,100442.39
2023-03-30T18:04:11.904Z,100445.97
2023-03-30T18:07:41.231Z,100440.08
2023-03-30T18:11:09.327Z,100446.27
2023-03-30T18:14:18.164Z,100433.34
2023-03-30T18:17:46.135Z,100422.35
2023-03-30T18:21:13.982Z,100428.65
2023-03-30T18:24:21.695Z,100426.91
2023-03-30T18:27:49.902Z,100420.77
2023-03-30T18:31:17.826Z,100420.01
2023-03-30T18:34:46.548Z,100411.81
2023-03-30T18:38:14.876Z,100412.30
2023-03-30T18:41:44.806Z,100410.27
2023-03-30T18:45:14.097Z,100408.58
2023-03-30T18:48:42.230Z,100410.64
2023-03-30T18:52:09.807Z,100396.45
2023-03-30T18:55:37.808Z,100391.19
2023-03-30T18:58:46.866Z,100386.98
2023-03-30T19:01:55.667Z,100390.23
2023-03-30T19:05:24.779Z,100383.34
2023-03-30T19:08:52.931Z,100373.98
2023-03-30T19:12:01.645Z,100371.01
2023-03-30T19:15:09.673Z,100370.15
2023-03-30T19:18:18.759Z,100372.17
2023-03-30T19:21:46.601Z,100368.88
2023-03-30T19:25:14.659Z,100369.61
2023-03-30T19:28:42.545Z,100368.94
2023-03-30T19:31:52.016Z,100371.38
2023-03-30T19:35:19.851Z,100371.63
2023-03-30T19:38:48.183Z,100374.73
2023-03-30T19:42:15.963Z,100372.11
2023-03-30T19:45:25.295Z,100375.35
2023-03-30T19:48:53.585Z,100375.58
2023-03-30T19:52:21.479Z,100377.05
2023-03-30T19:55:49.917Z,100374.81
2023-03-30T19:59:20.481Z,100370.02
2023-03-30T20:02:47.463Z,100366.63
2023-03-30T20:06:15.408Z,100363.21
2023-03-30T20:09:48.353Z,100362.38
2023-03-30T20:13:12.898Z,100363.48
2023-03-30T20:16:21.899Z,100366.02
2023-03-30T20:19:49.965Z,100371.79
2023-03-30T20:22:57.795Z,100374.13
2023-03-30T20:26:25.620Z,100374.66
2023-03-30T20:29:53.388Z,100373.80
2023-03-30T20:33:22.597Z,100372.33
2023-03-30T20:36:32.117Z,100372.69
2023-03-30T20:39:54.083Z,100366.50
2023-03-30T20:43:21.918Z,100367.18
2023-03-30T20:46:12.077Z,100365.64
2023-03-30T20:49:41.447Z,100364.98
2023-03-30T20:52:48.668Z,100359.30
2023-03-30T20:56:16.378Z,100361.46
2023-03-30T20:59:44.608Z,100363.35
2023-03-30T21:03:12.662Z,100363.00
2023-03-30T21:06:40.345Z,100363.69
2023-03-30T21:10:08.308Z,100367.55
2023-03-30T21:13:38.713Z,100371.96
2023-03-30T21:16:46.935Z,100375.15
2023-03-30T21:20:14.883Z,100382.45
2023-03-30T21:23:43.034Z,100396.41
2023-03-30T21:27:11.020Z,100401.55
2023-03-30T21:30:38.885Z,100401.88
2023-03-30T21:34:06.777Z,100398.73
2023-03-30T21:37:34.766Z,100403.13
2023-03-30T21:41:02.511Z,100405.96
2023-03-30T21:44:30.299Z,100399.70
2023-03-30T21:47:59.615Z,100399.95
2023-03-30T21:51:27.499Z,100395.58
2023-03-30T21:54:55.463Z,100400.27
2023-03-30T21:58:23.328Z,100396.23
2023-03-30T22:01:51.449Z,100387.08
2023-03-30T22:05:19.408Z,100384.23
2023-03-30T22:08:47.471Z,100383.58
2023-03-30T22:12:15.443Z,100381.64
2023-03-30T22:15:44.944Z,100376.60
2023-03-30T22:19:13.035Z,100376.20
2023-03-30T22:22:40.890Z,100368.64
2023-03-30T22:26:09.137Z,100367.04
2023-03-30T22:29:36.767Z,100357.36
2023-03-30T22:32:45.539Z,100351.61
2023-03-30T22:35:34.631Z,100344.40
2023-03-30T22:39:02.339Z,100339.54
2023-03-30T22:42:10.895Z,100335.22
2023-03-30T22:45:38.773Z,100333.00
2023-03-30T22:49:06.584Z,100323.13
2023-03-30T22:52:34.511Z,100318.94
2023-03-30T22:56:02.641Z,100308.59
2023-03-30T22:59:30.412Z,100315.70
2023-03-30T23:02:58.137Z,100310.52
2023-03-30T23:06:26.362Z,100310.09
2023-03-30T23:09:55.058Z,100314.36
2023-03-30T23:12:43.330Z,100308.69
2023-03-30T23:16:11.208Z,100302.38
2023-03-30T23:19:38.942Z,100298.52
2023-03-30T23:22:48.600Z,100299.34
2023-03-30T23:26:16.701Z,100295.27
2023-03-30T23:29:45.019Z,100299.77
2023-03-30T23:33:13.234Z,100304.44
2023-03-30T23:36:41.077Z,100305.06
2023-03-30T23:40:09.013Z,100298.05
2023-03-30T23:43:18.032Z,100293.13
2023-03-30T23:46:45.880Z,100290.16
2023-03-30T23:49:53.955Z,100283.77
2023-03-30T23:53:02.989Z,100288.98
2023-03-30T23:56:30.861Z,100290.86
2023-03-30T23:59:58.775Z,100284.52
